Winnie, TX (77665)

7:16 PM CDT on August 27, 2015 (GMT -0500)
Burrell Cove | | Change Station
CLOSE
Current Station
Personal Weather Station
Location: Beaumont, TX
Elevation: 16 ft
Nearby Weather Stations

Elev 16 ft 29.89 °N, 94.22 °W | Updated 5 seconds ago

Clear
Clear
85.5 °F
Feels Like 92 °F
N
0.0
Wind Variable Wind from North
Gusts 0.0 mph

Today
High -- | Low -- °F
--% Chance of Precip.
Yesterday
High -- | Low -- °F
Precip. -- in
6:51 AM 7:45 PM
Waxing Gibbous, 95% visible
Pressure 29.97 in
Visibility 10.0 miles
Clouds Clear
Heat Index 92 °F
Dew Point 72 °F
Humidity 64%
Rainfall 0.00 in
Snow Depth Not available.
UV 0 out of 12
Pollen 5.70 out of 12
Air Quality Not available.
Flu Activity Not available.
METAR KBMT 272355Z AUTO 00000KT 10SM CLR 28/22 A2997 RMK AO2 T02820222 10315 20282
Pressure 29.97 in
Visibility 10.0 miles
Clouds Clear
Heat Index 92 °F
Dew Point 72 °F
Humidity 64%
Rainfall 0.00 in
Snow Depth Not available.
UV 0 out of 12
Pollen 5.70 out of 12
Air Quality Not available.
Flu Activity Not available.
METAR KBMT 272355Z AUTO 00000KT 10SM CLR 28/22 A2997 RMK AO2 T02820222 10315 20282

10-Day Weather Forecast

×

Almanac

Astronomy

Aug. 27, 2015 Rise Set
Actual Time
Civil Twilight
Nautical Twilight
Astronomical Twilight
Moon
Length of Visible Light
Length of Day
Tomorrow will be .
, % of the Moon is Illuminated

Today's Extremes

State Highs State Lows

Community

WunderPhotos

Upload Photos

1,850,272 photos uploaded!

WunderBlogs® & News

Nearby

Air Quality

  Air Quality AQ Index Pollutant
Not available.

Snow Depth

Station Depth Elevation

Earthquake Activity

City Distance Mag. Time & Date
Minimum magnitude displayed is 2.5.

Coastal Water Temperatures

Place Temperature

Stations

Nearby Weather Stations

Station Location Temp. Windchill Dew Point Humidity Wind Precip. Elev Updated Type